sensor_id;sensor_type;location;lat;lon;timestamp;temperature;humidity
6291;DHT22;3178;48.730;8.990;2023-02-02T00:01:19;4.90;99.90
6291;DHT22;3178;48.730;8.990;2023-02-02T00:03:46;4.90;99.90
6291;DHT22;3178;48.730;8.990;2023-02-02T00:06:13;4.90;99.90
6291;DHT22;3178;48.730;8.990;2023-02-02T00:08:38;4.90;99.90
6291;DHT22;3178;48.730;8.990;2023-02-02T00:11:05;4.90;99.90
6291;DHT22;3178;48.730;8.990;2023-02-02T00:13:30;4.90;99.90
6291;DHT22;3178;48.730;8.990;2023-02-02T00:15:56;4.90;99.90
6291;DHT22;3178;48.730;8.990;2023-02-02T00:18:22;4.90;99.90
6291;DHT22;3178;48.730;8.990;2023-02-02T00:20:47;4.90;99.90
6291;DHT22;3178;48.730;8.990;2023-02-02T00:23:15;4.90;99.90
6291;DHT22;3178;48.730;8.990;2023-02-02T00:25:41;4.90;99.90
6291;DHT22;3178;48.730;8.990;2023-02-02T00:28:07;4.90;99.90
6291;DHT22;3178;48.730;8.990;2023-02-02T00:30:32;4.90;99.90
6291;DHT22;3178;48.730;8.990;2023-02-02T00:32:58;5.00;99.90
6291;DHT22;3178;48.730;8.990;2023-02-02T00:35:23;4.90;99.90
6291;DHT22;3178;48.730;8.990;2023-02-02T00:37:49;5.00;99.90
6291;DHT22;3178;48.730;8.990;2023-02-02T00:40:15;5.00;99.90
6291;DHT22;3178;48.730;8.990;2023-02-02T00:42:40;5.00;99.90
6291;DHT22;3178;48.730;8.990;2023-02-02T00:45:12;5.00;99.90
6291;DHT22;3178;48.730;8.990;2023-02-02T00:47:41;5.00;99.90
6291;DHT22;3178;48.730;8.990;2023-02-02T00:50:09;4.90;99.90
6291;DHT22;3178;48.730;8.990;2023-02-02T00:52:35;5.00;99.90
6291;DHT22;3178;48.730;8.990;2023-02-02T00:55:00;5.00;99.90
6291;DHT22;3178;48.730;8.990;2023-02-02T00:57:26;5.00;99.90
6291;DHT22;3178;48.730;8.990;2023-02-02T00:59:51;5.00;99.90
6291;DHT22;3178;48.730;8.990;2023-02-02T01:02:17;5.00;99.90
6291;DHT22;3178;48.730;8.990;2023-02-02T01:04:42;5.00;99.90
6291;DHT22;3178;48.730;8.990;2023-02-02T01:07:08;5.00;99.90
6291;DHT22;3178;48.730;8.990;2023-02-02T01:09:33;5.00;99.90
6291;DHT22;3178;48.730;8.990;2023-02-02T01:11:59;5.00;99.90
6291;DHT22;3178;48.730;8.990;2023-02-02T01:14:25;5.00;99.90
6291;DHT22;3178;48.730;8.990;2023-02-02T01:16:50;5.00;99.90
6291;DHT22;3178;48.730;8.990;2023-02-02T01:19:16;5.00;99.90
6291;DHT22;3178;48.730;8.990;2023-02-02T01:21:42;5.00;99.90
6291;DHT22;3178;48.730;8.990;2023-02-02T01:24:08;5.00;99.90
6291;DHT22;3178;48.730;8.990;2023-02-02T01:26:33;5.00;99.90
6291;DHT22;3178;48.730;8.990;2023-02-02T01:28:59;5.00;99.90
6291;DHT22;3178;48.730;8.990;2023-02-02T01:31:25;5.00;99.90
6291;DHT22;3178;48.730;8.990;2023-02-02T01:33:50;5.10;99.90
6291;DHT22;3178;48.730;8.990;2023-02-02T01:36:21;5.10;99.90
6291;DHT22;3178;48.730;8.990;2023-02-02T01:38:47;5.00;99.90
6291;DHT22;3178;48.730;8.990;2023-02-02T01:41:18;5.00;99.90
6291;DHT22;3178;48.730;8.990;2023-02-02T01:48:43;5.00;99.90
6291;DHT22;3178;48.730;8.990;2023-02-02T01:51:14;5.00;99.90
6291;DHT22;3178;48.730;8.990;2023-02-02T01:53:42;5.00;99.90
6291;DHT22;3178;48.730;8.990;2023-02-02T01:56:11;5.00;99.90
6291;DHT22;3178;48.730;8.990;2023-02-02T01:58:39;5.00;99.90
6291;DHT22;3178;48.730;8.990;2023-02-02T02:01:06;5.00;99.90
6291;DHT22;3178;48.730;8.990;2023-02-02T02:03:33;5.10;99.90
6291;DHT22;3178;48.730;8.990;2023-02-02T02:06:04;5.00;99.90
6291;DHT22;3178;48.730;8.990;2023-02-02T02:08:38;5.00;99.90
6291;DHT22;3178;48.730;8.990;2023-02-02T02:11:05;5.00;99.90
6291;DHT22;3178;48.730;8.990;2023-02-02T02:13:34;5.00;99.90
6291;DHT22;3178;48.730;8.990;2023-02-02T02:16:33;5.00;99.90
6291;DHT22;3178;48.730;8.990;2023-02-02T02:28:27;5.10;99.90
6291;DHT22;3178;48.730;8.990;2023-02-02T02:33:59;5.10;99.90
6291;DHT22;3178;48.730;8.990;2023-02-02T02:39:29;5.10;99.90
6291;DHT22;3178;48.730;8.990;2023-02-02T02:41:59;5.10;99.90
6291;DHT22;3178;48.730;8.990;2023-02-02T02:44:26;5.10;99.90
6291;DHT22;3178;48.730;8.990;2023-02-02T02:46:53;5.10;99.90
6291;DHT22;3178;48.730;8.990;2023-02-02T02:49:19;5.10;99.90
6291;DHT22;3178;48.730;8.990;2023-02-02T02:51:51;5.00;99.90
6291;DHT22;3178;48.730;8.990;2023-02-02T02:54:31;5.00;99.90
6291;DHT22;3178;48.730;8.990;2023-02-02T02:57:17;5.10;99.90
6291;DHT22;3178;48.730;8.990;2023-02-02T03:07:42;5.00;99.90
6291;DHT22;3178;48.730;8.990;2023-02-02T03:10:11;5.00;99.90
6291;DHT22;3178;48.730;8.990;2023-02-02T03:12:48;5.00;99.90
6291;DHT22;3178;48.730;8.990;2023-02-02T03:15:15;5.00;99.90
6291;DHT22;3178;48.730;8.990;2023-02-02T03:17:42;5.00;99.90
6291;DHT22;3178;48.730;8.990;2023-02-02T03:20:10;5.00;99.90
6291;DHT22;3178;48.730;8.990;2023-02-02T03:22:35;5.00;99.90
6291;DHT22;3178;48.730;8.990;2023-02-02T03:25:01;5.00;99.90
6291;DHT22;3178;48.730;8.990;2023-02-02T03:27:27;5.00;99.90
6291;DHT22;3178;48.730;8.990;2023-02-02T03:29:53;5.00;99.90
6291;DHT22;3178;48.730;8.990;2023-02-02T03:32:19;5.00;99.90
6291;DHT22;3178;48.730;8.990;2023-02-02T03:34:45;5.00;99.90
6291;DHT22;3178;48.730;8.990;2023-02-02T03:37:10;5.00;99.90
6291;DHT22;3178;48.730;8.990;2023-02-02T03:39:36;5.00;99.90
6291;DHT22;3178;48.730;8.990;2023-02-02T03:42:01;5.00;99.90
6291;DHT22;3178;48.730;8.990;2023-02-02T03:44:27;5.00;99.90
6291;DHT22;3178;48.730;8.990;2023-02-02T03:46:53;5.00;99.90
6291;DHT22;3178;48.730;8.990;2023-02-02T03:49:19;5.00;99.90
6291;DHT22;3178;48.730;8.990;2023-02-02T03:51:44;5.00;99.90
6291;DHT22;3178;48.730;8.990;2023-02-02T03:54:10;5.00;99.90
6291;DHT22;3178;48.730;8.990;2023-02-02T03:56:35;5.00;99.90
6291;DHT22;3178;48.730;8.990;2023-02-02T03:59:01;5.00;99.90
6291;DHT22;3178;48.730;8.990;2023-02-02T04:01:27;5.00;99.90
6291;DHT22;3178;48.730;8.990;2023-02-02T04:03:54;5.00;99.90
6291;DHT22;3178;48.730;8.990;2023-02-02T04:06:21;5.00;99.90
6291;DHT22;3178;48.730;8.990;2023-02-02T04:08:47;5.00;99.90
6291;DHT22;3178;48.730;8.990;2023-02-02T04:11:12;5.00;99.90
6291;DHT22;3178;48.730;8.990;2023-02-02T04:13:38;5.00;99.90
6291;DHT22;3178;48.730;8.990;2023-02-02T04:16:04;5.00;99.90
6291;DHT22;3178;48.730;8.990;2023-02-02T04:18:30;5.00;99.90
6291;DHT22;3178;48.730;8.990;2023-02-02T04:20:59;5.00;99.90
6291;DHT22;3178;48.730;8.990;2023-02-02T04:23:27;5.00;99.90
6291;DHT22;3178;48.730;8.990;2023-02-02T04:25:53;5.10;99.90
6291;DHT22;3178;48.730;8.990;2023-02-02T04:28:18;5.10;99.90
6291;DHT22;3178;48.730;8.990;2023-02-02T04:30:44;5.00;99.90
6291;DHT22;3178;48.730;8.990;2023-02-02T04:33:10;5.10;99.90
6291;DHT22;3178;48.730;8.990;2023-02-02T04:35:35;5.10;99.90
6291;DHT22;3178;48.730;8.990;2023-02-02T04:38:01;5.10;99.90
6291;DHT22;3178;48.730;8.990;2023-02-02T04:40:26;5.10;99.90
6291;DHT22;3178;48.730;8.990;2023-02-02T04:42:52;5.10;99.90
6291;DHT22;3178;48.730;8.990;2023-02-02T04:45:17;5.10;99.90
6291;DHT22;3178;48.730;8.990;2023-02-02T04:47:43;5.10;99.90
6291;DHT22;3178;48.730;8.990;2023-02-02T04:50:09;5.10;99.90
6291;DHT22;3178;48.730;8.990;2023-02-02T04:52:36;5.10;99.90
6291;DHT22;3178;48.730;8.990;2023-02-02T04:55:02;5.10;99.90
6291;DHT22;3178;48.730;8.990;2023-02-02T04:57:27;5.20;99.90
6291;DHT22;3178;48.730;8.990;2023-02-02T04:59:53;5.20;99.90
6291;DHT22;3178;48.730;8.990;2023-02-02T05:02:18;5.10;99.90
6291;DHT22;3178;48.730;8.990;2023-02-02T05:04:45;5.20;99.90
6291;DHT22;3178;48.730;8.990;2023-02-02T05:07:10;5.10;99.90
6291;DHT22;3178;48.730;8.990;2023-02-02T05:09:36;5.20;99.90
6291;DHT22;3178;48.730;8.990;2023-02-02T05:12:01;5.20;99.90
6291;DHT22;3178;48.730;8.990;2023-02-02T05:14:27;5.10;99.90
6291;DHT22;3178;48.730;8.990;2023-02-02T05:16:52;5.10;99.90
6291;DHT22;3178;48.730;8.990;2023-02-02T05:19:18;5.10;99.90
6291;DHT22;3178;48.730;8.990;2023-02-02T05:21:44;5.10;99.90
6291;DHT22;3178;48.730;8.990;2023-02-02T05:24:10;5.10;99.90
6291;DHT22;3178;48.730;8.990;2023-02-02T05:26:36;5.10;99.90
6291;DHT22;3178;48.730;8.990;2023-02-02T05:29:02;5.10;99.90
6291;DHT22;3178;48.730;8.990;2023-02-02T05:31:28;5.10;99.90
6291;DHT22;3178;48.730;8.990;2023-02-02T05:33:55;5.10;99.90
6291;DHT22;3178;48.730;8.990;2023-02-02T05:36:21;5.10;99.90
6291;DHT22;3178;48.730;8.990;2023-02-02T05:38:46;5.20;99.90
6291;DHT22;3178;48.730;8.990;2023-02-02T05:41:12;5.10;99.90
6291;DHT22;3178;48.730;8.990;2023-02-02T05:43:37;5.10;99.90
6291;DHT22;3178;48.730;8.990;2023-02-02T05:46:03;5.10;99.90
6291;DHT22;3178;48.730;8.990;2023-02-02T05:48:29;5.20;99.90
6291;DHT22;3178;48.730;8.990;2023-02-02T05:53:23;5.20;99.90
6291;DHT22;3178;48.730;8.990;2023-02-02T05:55:48;5.20;99.90
6291;DHT22;3178;48.730;8.990;2023-02-02T05:58:14;5.20;99.90
6291;DHT22;3178;48.730;8.990;2023-02-02T06:00:39;5.20;99.90
6291;DHT22;3178;48.730;8.990;2023-02-02T06:03:05;5.20;99.90
6291;DHT22;3178;48.730;8.990;2023-02-02T06:05:31;5.20;99.90
6291;DHT22;3178;48.730;8.990;2023-02-02T06:07:56;5.20;99.90
6291;DHT22;3178;48.730;8.990;2023-02-02T06:10:22;5.20;99.90
6291;DHT22;3178;48.730;8.990;2023-02-02T06:12:47;5.20;99.90
6291;DHT22;3178;48.730;8.990;2023-02-02T06:15:13;5.20;99.90
6291;DHT22;3178;48.730;8.990;2023-02-02T06:17:38;5.30;99.90
6291;DHT22;3178;48.730;8.990;2023-02-02T06:20:04;5.30;99.90
6291;DHT22;3178;48.730;8.990;2023-02-02T06:22:31;5.30;99.90
6291;DHT22;3178;48.730;8.990;2023-02-02T06:24:57;5.30;99.90
6291;DHT22;3178;48.730;8.990;2023-02-02T06:27:23;5.30;99.90
6291;DHT22;3178;48.730;8.990;2023-02-02T06:29:48;5.30;99.90
6291;DHT22;3178;48.730;8.990;2023-02-02T06:32:14;5.30;99.90
6291;DHT22;3178;48.730;8.990;2023-02-02T06:34:39;5.20;99.90
6291;DHT22;3178;48.730;8.990;2023-02-02T06:37:05;5.30;99.90
6291;DHT22;3178;48.730;8.990;2023-02-02T06:39:31;5.30;99.90
6291;DHT22;3178;48.730;8.990;2023-02-02T06:41:56;5.30;99.90
6291;DHT22;3178;48.730;8.990;2023-02-02T06:44:22;5.30;99.90
6291;DHT22;3178;48.730;8.990;2023-02-02T06:46:47;5.30;99.90
6291;DHT22;3178;48.730;8.990;2023-02-02T06:49:13;5.30;99.90
6291;DHT22;3178;48.730;8.990;2023-02-02T06:51:39;5.30;99.90
6291;DHT22;3178;48.730;8.990;2023-02-02T06:54:04;5.30;99.90
6291;DHT22;3178;48.730;8.990;2023-02-02T06:56:30;5.40;99.90
6291;DHT22;3178;48.730;8.990;2023-02-02T06:58:55;5.30;99.90
6291;DHT22;3178;48.730;8.990;2023-02-02T07:01:21;5.30;99.90
6291;DHT22;3178;48.730;8.990;2023-02-02T07:03:50;5.30;99.90
6291;DHT22;3178;48.730;8.990;2023-02-02T07:06:22;5.30;99.90
6291;DHT22;3178;48.730;8.990;2023-02-02T07:08:49;5.20;99.90
6291;DHT22;3178;48.730;8.990;2023-02-02T07:11:16;5.20;99.90
6291;DHT22;3178;48.730;8.990;2023-02-02T07:13:45;5.20;99.90
6291;DHT22;3178;48.730;8.990;2023-02-02T07:16:12;5.10;99.90
6291;DHT22;3178;48.730;8.990;2023-02-02T07:18:39;5.10;99.90
6291;DHT22;3178;48.730;8.990;2023-02-02T07:21:05;5.10;99.90
6291;DHT22;3178;48.730;8.990;2023-02-02T07:23:32;5.10;99.90
6291;DHT22;3178;48.730;8.990;2023-02-02T07:26:08;5.10;99.90
6291;DHT22;3178;48.730;8.990;2023-02-02T07:28:34;5.10;99.90
6291;DHT22;3178;48.730;8.990;2023-02-02T07:31:00;5.10;99.90
6291;DHT22;3178;48.730;8.990;2023-02-02T07:33:28;5.10;99.90
6291;DHT22;3178;48.730;8.990;2023-02-02T07:35:54;5.20;99.90
6291;DHT22;3178;48.730;8.990;2023-02-02T07:38:19;5.20;99.90
6291;DHT22;3178;48.730;8.990;2023-02-02T07:40:45;5.20;99.90
6291;DHT22;3178;48.730;8.990;2023-02-02T07:43:11;5.30;99.90
6291;DHT22;3178;48.730;8.990;2023-02-02T07:45:36;5.20;99.90
6291;DHT22;3178;48.730;8.990;2023-02-02T07:48:02;5.20;99.90
6291;DHT22;3178;48.730;8.990;2023-02-02T07:50:29;5.30;99.90
6291;DHT22;3178;48.730;8.990;2023-02-02T07:52:54;5.30;99.90
6291;DHT22;3178;48.730;8.990;2023-02-02T07:55:20;5.30;99.90
6291;DHT22;3178;48.730;8.990;2023-02-02T07:57:46;5.30;99.90
6291;DHT22;3178;48.730;8.990;2023-02-02T08:00:12;5.30;99.90
6291;DHT22;3178;48.730;8.990;2023-02-02T08:02:37;5.30;99.90
6291;DHT22;3178;48.730;8.990;2023-02-02T08:05:03;5.40;99.90
6291;DHT22;3178;48.730;8.990;2023-02-02T08:07:33;5.40;99.90
6291;DHT22;3178;48.730;8.990;2023-02-02T08:09:59;5.40;99.90
6291;DHT22;3178;48.730;8.990;2023-02-02T08:12:24;5.50;99.90
6291;DHT22;3178;48.730;8.990;2023-02-02T08:14:51;5.50;99.90
6291;DHT22;3178;48.730;8.990;2023-02-02T08:17:16;5.60;99.90
6291;DHT22;3178;48.730;8.990;2023-02-02T08:19:42;5.60;99.90
6291;DHT22;3178;48.730;8.990;2023-02-02T08:22:07;5.60;99.90
6291;DHT22;3178;48.730;8.990;2023-02-02T08:24:33;5.60;99.90
6291;DHT22;3178;48.730;8.990;2023-02-02T08:26:58;5.60;99.90
6291;DHT22;3178;48.730;8.990;2023-02-02T08:29:24;5.60;99.90
6291;DHT22;3178;48.730;8.990;2023-02-02T08:31:49;5.70;99.90
6291;DHT22;3178;48.730;8.990;2023-02-02T08:34:15;5.70;99.90
6291;DHT22;3178;48.730;8.990;2023-02-02T08:36:40;5.70;99.90
6291;DHT22;3178;48.730;8.990;2023-02-02T08:39:09;5.80;99.90
6291;DHT22;3178;48.730;8.990;2023-02-02T08:41:36;5.80;99.90
6291;DHT22;3178;48.730;8.990;2023-02-02T08:44:08;5.80;99.90
6291;DHT22;3178;48.730;8.990;2023-02-02T08:46:33;5.90;99.90
6291;DHT22;3178;48.730;8.990;2023-02-02T08:48:59;5.90;99.90
6291;DHT22;3178;48.730;8.990;2023-02-02T08:51:24;5.90;99.90
6291;DHT22;3178;48.730;8.990;2023-02-02T08:53:50;5.90;99.90
6291;DHT22;3178;48.730;8.990;2023-02-02T08:56:20;5.90;99.90
6291;DHT22;3178;48.730;8.990;2023-02-02T08:58:49;6.00;99.90
6291;DHT22;3178;48.730;8.990;2023-02-02T09:01:20;6.00;99.90
6291;DHT22;3178;48.730;8.990;2023-02-02T09:03:47;6.00;99.90
6291;DHT22;3178;48.730;8.990;2023-02-02T09:06:18;6.00;99.90
6291;DHT22;3178;48.730;8.990;2023-02-02T09:08:44;6.00;99.90
6291;DHT22;3178;48.730;8.990;2023-02-02T09:11:15;6.00;99.90
6291;DHT22;3178;48.730;8.990;2023-02-02T09:13:43;6.00;99.90
6291;DHT22;3178;48.730;8.990;2023-02-02T09:16:12;6.00;99.90
6291;DHT22;3178;48.730;8.990;2023-02-02T09:18:39;6.00;99.90
6291;DHT22;3178;48.730;8.990;2023-02-02T09:21:07;6.00;99.90
6291;DHT22;3178;48.730;8.990;2023-02-02T09:23:36;6.00;99.90
6291;DHT22;3178;48.730;8.990;2023-02-02T09:26:20;6.00;99.90
6291;DHT22;3178;48.730;8.990;2023-02-02T09:28:47;6.00;99.90
6291;DHT22;3178;48.730;8.990;2023-02-02T09:31:13;6.10;99.90
6291;DHT22;3178;48.730;8.990;2023-02-02T09:33:39;6.10;99.90
6291;DHT22;3178;48.730;8.990;2023-02-02T09:36:17;6.10;99.90
6291;DHT22;3178;48.730;8.990;2023-02-02T09:38:44;6.20;99.90
6291;DHT22;3178;48.730;8.990;2023-02-02T09:47:23;6.20;99.90
6291;DHT22;3178;48.730;8.990;2023-02-02T09:55:24;6.10;99.90
6291;DHT22;3178;48.730;8.990;2023-02-02T09:57:57;6.10;99.90
6291;DHT22;3178;48.730;8.990;2023-02-02T10:00:29;6.10;99.90
6291;DHT22;3178;48.730;8.990;2023-02-02T10:03:09;6.10;99.90
6291;DHT22;3178;48.730;8.990;2023-02-02T10:05:50;6.10;99.90
6291;DHT22;3178;48.730;8.990;2023-02-02T10:08:24;6.10;99.90
6291;DHT22;3178;48.730;8.990;2023-02-02T10:10:50;6.10;99.90
6291;DHT22;3178;48.730;8.990;2023-02-02T10:13:30;6.10;99.90
6291;DHT22;3178;48.730;8.990;2023-02-02T10:16:05;6.10;99.90
6291;DHT22;3178;48.730;8.990;2023-02-02T10:18:49;6.10;99.90
6291;DHT22;3178;48.730;8.990;2023-02-02T10:23:48;6.20;99.90
6291;DHT22;3178;48.730;8.990;2023-02-02T10:26:22;6.20;99.90
6291;DHT22;3178;48.730;8.990;2023-02-02T10:29:07;6.20;99.90
6291;DHT22;3178;48.730;8.990;2023-02-02T10:31:35;6.30;99.90
6291;DHT22;3178;48.730;8.990;2023-02-02T10:34:14;6.30;99.90
6291;DHT22;3178;48.730;8.990;2023-02-02T10:42:52;6.30;99.90
6291;DHT22;3178;48.730;8.990;2023-02-02T10:45:40;6.30;99.90
6291;DHT22;3178;48.730;8.990;2023-02-02T10:48:20;6.30;99.90
6291;DHT22;3178;48.730;8.990;2023-02-02T10:50:52;6.30;99.90
6291;DHT22;3178;48.730;8.990;2023-02-02T10:53:19;6.30;99.90
6291;DHT22;3178;48.730;8.990;2023-02-02T10:56:07;6.30;99.90
6291;DHT22;3178;48.730;8.990;2023-02-02T10:59:00;6.30;99.90
6291;DHT22;3178;48.730;8.990;2023-02-02T11:01:26;6.30;99.90
6291;DHT22;3178;48.730;8.990;2023-02-02T11:03:52;6.20;99.90
6291;DHT22;3178;48.730;8.990;2023-02-02T11:06:38;6.20;99.90
6291;DHT22;3178;48.730;8.990;2023-02-02T11:09:22;6.30;99.90
6291;DHT22;3178;48.730;8.990;2023-02-02T11:11:54;6.30;99.90
6291;DHT22;3178;48.730;8.990;2023-02-02T11:14:41;6.30;99.90
6291;DHT22;3178;48.730;8.990;2023-02-02T11:17:22;6.20;99.90
6291;DHT22;3178;48.730;8.990;2023-02-02T11:19:48;6.20;99.90
6291;DHT22;3178;48.730;8.990;2023-02-02T11:22:58;6.20;99.90
6291;DHT22;3178;48.730;8.990;2023-02-02T11:25:35;6.30;99.90
6291;DHT22;3178;48.730;8.990;2023-02-02T11:28:18;6.20;99.90
6291;DHT22;3178;48.730;8.990;2023-02-02T11:30:49;6.20;99.90
6291;DHT22;3178;48.730;8.990;2023-02-02T11:33:30;6.20;99.90
6291;DHT22;3178;48.730;8.990;2023-02-02T11:35:58;6.20;99.90
6291;DHT22;3178;48.730;8.990;2023-02-02T11:38:25;6.20;99.90
6291;DHT22;3178;48.730;8.990;2023-02-02T11:41:03;6.30;99.90
6291;DHT22;3178;48.730;8.990;2023-02-02T11:43:34;6.30;99.90
6291;DHT22;3178;48.730;8.990;2023-02-02T11:46:28;6.30;99.90
6291;DHT22;3178;48.730;8.990;2023-02-02T11:49:06;6.30;99.90
6291;DHT22;3178;48.730;8.990;2023-02-02T11:51:37;6.30;99.90
6291;DHT22;3178;48.730;8.990;2023-02-02T11:54:27;6.30;99.90
6291;DHT22;3178;48.730;8.990;2023-02-02T11:56:56;6.30;99.90
6291;DHT22;3178;48.730;8.990;2023-02-02T12:04:51;6.40;99.90
6291;DHT22;3178;48.730;8.990;2023-02-02T12:07:31;6.40;99.90
6291;DHT22;3178;48.730;8.990;2023-02-02T12:10:26;6.40;99.90
6291;DHT22;3178;48.730;8.990;2023-02-02T12:13:00;6.40;99.90
6291;DHT22;3178;48.730;8.990;2023-02-02T12:15:46;6.40;99.90
6291;DHT22;3178;48.730;8.990;2023-02-02T12:18:28;6.40;99.90
6291;DHT22;3178;48.730;8.990;2023-02-02T12:21:05;6.40;99.90
6291;DHT22;3178;48.730;8.990;2023-02-02T12:37:50;6.40;99.90
6291;DHT22;3178;48.730;8.990;2023-02-02T12:40:43;6.40;99.90
6291;DHT22;3178;48.730;8.990;2023-02-02T12:43:36;6.40;99.90
6291;DHT22;3178;48.730;8.990;2023-02-02T12:52:29;6.30;99.90
6291;DHT22;3178;48.730;8.990;2023-02-02T12:55:01;6.30;99.90
6291;DHT22;3178;48.730;8.990;2023-02-02T13:00:35;6.30;99.90
6291;DHT22;3178;48.730;8.990;2023-02-02T13:09:08;6.30;99.90
6291;DHT22;3178;48.730;8.990;2023-02-02T13:11:38;6.30;99.90
6291;DHT22;3178;48.730;8.990;2023-02-02T13:16:49;6.20;99.90
6291;DHT22;3178;48.730;8.990;2023-02-02T13:19:30;6.20;99.90
6291;DHT22;3178;48.730;8.990;2023-02-02T13:21:57;6.20;99.90
6291;DHT22;3178;48.730;8.990;2023-02-02T13:24:30;6.20;99.90
6291;DHT22;3178;48.730;8.990;2023-02-02T13:27:00;6.10;99.90
6291;DHT22;3178;48.730;8.990;2023-02-02T13:32:32;6.10;99.90
6291;DHT22;3178;48.730;8.990;2023-02-02T13:35:21;6.10;99.90
6291;DHT22;3178;48.730;8.990;2023-02-02T13:37:57;6.10;99.90
6291;DHT22;3178;48.730;8.990;2023-02-02T13:43:13;6.10;99.90
6291;DHT22;3178;48.730;8.990;2023-02-02T13:51:37;6.10;99.90
6291;DHT22;3178;48.730;8.990;2023-02-02T13:59:53;6.10;99.90
6291;DHT22;3178;48.730;8.990;2023-02-02T14:02:34;6.10;99.90
6291;DHT22;3178;48.730;8.990;2023-02-02T14:05:05;6.10;99.90
6291;DHT22;3178;48.730;8.990;2023-02-02T14:07:41;6.10;99.90
6291;DHT22;3178;48.730;8.990;2023-02-02T14:10:44;6.20;99.90
6291;DHT22;3178;48.730;8.990;2023-02-02T14:26:45;6.10;99.90
6291;DHT22;3178;48.730;8.990;2023-02-02T14:31:55;6.10;99.90
6291;DHT22;3178;48.730;8.990;2023-02-02T14:48:39;6.20;99.90
6291;DHT22;3178;48.730;8.990;2023-02-02T14:51:17;6.20;99.90
6291;DHT22;3178;48.730;8.990;2023-02-02T14:53:55;6.20;99.90
6291;DHT22;3178;48.730;8.990;2023-02-02T14:56:38;6.20;99.90
6291;DHT22;3178;48.730;8.990;2023-02-02T14:59:04;6.20;99.90
6291;DHT22;3178;48.730;8.990;2023-02-02T15:01:33;6.20;99.90
6291;DHT22;3178;48.730;8.990;2023-02-02T15:06:34;6.20;99.90
6291;DHT22;3178;48.730;8.990;2023-02-02T15:14:41;6.30;99.90
6291;DHT22;3178;48.730;8.990;2023-02-02T15:19:48;6.30;99.90
6291;DHT22;3178;48.730;8.990;2023-02-02T15:22:31;6.20;99.90
6291;DHT22;3178;48.730;8.990;2023-02-02T15:25:04;6.20;99.90
6291;DHT22;3178;48.730;8.990;2023-02-02T15:27:32;6.20;99.90
6291;DHT22;3178;48.730;8.990;2023-02-02T15:30:03;6.20;99.90
6291;DHT22;3178;48.730;8.990;2023-02-02T15:32:31;6.20;99.90
6291;DHT22;3178;48.730;8.990;2023-02-02T15:35:02;6.20;99.90
6291;DHT22;3178;48.730;8.990;2023-02-02T15:37:31;6.20;99.90
6291;DHT22;3178;48.730;8.990;2023-02-02T15:40:12;6.20;99.90
6291;DHT22;3178;48.730;8.990;2023-02-02T15:42:44;6.20;99.90
6291;DHT22;3178;48.730;8.990;2023-02-02T15:48:26;6.20;99.90
6291;DHT22;3178;48.730;8.990;2023-02-02T15:50:56;6.20;99.90
6291;DHT22;3178;48.730;8.990;2023-02-02T15:53:31;6.20;99.90
6291;DHT22;3178;48.730;8.990;2023-02-02T15:55:57;6.20;99.90
6291;DHT22;3178;48.730;8.990;2023-02-02T15:58:33;6.20;99.90
6291;DHT22;3178;48.730;8.990;2023-02-02T16:01:17;6.20;99.90
6291;DHT22;3178;48.730;8.990;2023-02-02T16:04:16;6.20;99.90
6291;DHT22;3178;48.730;8.990;2023-02-02T16:06:43;6.20;99.90
6291;DHT22;3178;48.730;8.990;2023-02-02T16:09:23;6.20;99.90
6291;DHT22;3178;48.730;8.990;2023-02-02T16:11:49;6.20;99.90
6291;DHT22;3178;48.730;8.990;2023-02-02T16:14:16;6.20;99.90
6291;DHT22;3178;48.730;8.990;2023-02-02T16:16:45;6.10;99.90
6291;DHT22;3178;48.730;8.990;2023-02-02T16:19:19;6.20;99.90
6291;DHT22;3178;48.730;8.990;2023-02-02T16:21:58;6.10;99.90
6291;DHT22;3178;48.730;8.990;2023-02-02T16:24:33;6.10;99.90
6291;DHT22;3178;48.730;8.990;2023-02-02T16:27:01;6.10;99.90
6291;DHT22;3178;48.730;8.990;2023-02-02T16:29:28;6.20;99.90
6291;DHT22;3178;48.730;8.990;2023-02-02T16:31:54;6.10;99.90
6291;DHT22;3178;48.730;8.990;2023-02-02T16:37:12;6.10;99.90
6291;DHT22;3178;48.730;8.990;2023-02-02T16:39:38;6.10;99.90
6291;DHT22;3178;48.730;8.990;2023-02-02T16:42:26;6.10;99.90
6291;DHT22;3178;48.730;8.990;2023-02-02T16:44:52;6.10;99.90
6291;DHT22;3178;48.730;8.990;2023-02-02T16:50:15;6.10;99.90
6291;DHT22;3178;48.730;8.990;2023-02-02T16:52:57;6.10;99.90
6291;DHT22;3178;48.730;8.990;2023-02-02T16:55:25;6.10;99.90
6291;DHT22;3178;48.730;8.990;2023-02-02T16:57:53;6.30;99.90
6291;DHT22;3178;48.730;8.990;2023-02-02T17:00:24;6.10;99.90
6291;DHT22;3178;48.730;8.990;2023-02-02T17:02:55;6.10;99.90
6291;DHT22;3178;48.730;8.990;2023-02-02T17:05:28;6.10;99.90
6291;DHT22;3178;48.730;8.990;2023-02-02T17:08:03;6.10;99.90
6291;DHT22;3178;48.730;8.990;2023-02-02T17:10:43;6.10;99.90
6291;DHT22;3178;48.730;8.990;2023-02-02T17:16:01;6.10;99.90
6291;DHT22;3178;48.730;8.990;2023-02-02T17:18:26;6.10;99.90
6291;DHT22;3178;48.730;8.990;2023-02-02T17:20:54;6.10;99.90
6291;DHT22;3178;48.730;8.990;2023-02-02T17:23:28;6.10;99.90
6291;DHT22;3178;48.730;8.990;2023-02-02T17:25:55;6.10;99.90
6291;DHT22;3178;48.730;8.990;2023-02-02T17:28:23;6.10;99.90
6291;DHT22;3178;48.730;8.990;2023-02-02T17:31:02;6.10;99.90
6291;DHT22;3178;48.730;8.990;2023-02-02T17:33:32;6.10;99.90
6291;DHT22;3178;48.730;8.990;2023-02-02T17:35:58;6.00;99.90
6291;DHT22;3178;48.730;8.990;2023-02-02T17:38:24;6.00;99.90
6291;DHT22;3178;48.730;8.990;2023-02-02T17:40:52;6.00;99.90
6291;DHT22;3178;48.730;8.990;2023-02-02T17:43:19;6.00;99.90
6291;DHT22;3178;48.730;8.990;2023-02-02T17:45:45;6.00;99.90
6291;DHT22;3178;48.730;8.990;2023-02-02T17:48:12;6.00;99.90
6291;DHT22;3178;48.730;8.990;2023-02-02T17:50:39;6.00;99.90
6291;DHT22;3178;48.730;8.990;2023-02-02T17:53:04;6.00;99.90
6291;DHT22;3178;48.730;8.990;2023-02-02T17:55:33;5.90;99.90
6291;DHT22;3178;48.730;8.990;2023-02-02T17:58:00;5.90;99.90
6291;DHT22;3178;48.730;8.990;2023-02-02T18:00:26;5.90;99.90
6291;DHT22;3178;48.730;8.990;2023-02-02T18:02:56;5.90;99.90
6291;DHT22;3178;48.730;8.990;2023-02-02T18:05:22;5.80;99.90
6291;DHT22;3178;48.730;8.990;2023-02-02T18:07:47;5.80;99.90
6291;DHT22;3178;48.730;8.990;2023-02-02T18:10:14;5.80;99.90
6291;DHT22;3178;48.730;8.990;2023-02-02T18:12:41;5.80;99.90
6291;DHT22;3178;48.730;8.990;2023-02-02T18:15:10;5.80;99.90
6291;DHT22;3178;48.730;8.990;2023-02-02T18:17:36;5.80;99.90
6291;DHT22;3178;48.730;8.990;2023-02-02T18:20:02;5.80;99.90
6291;DHT22;3178;48.730;8.990;2023-02-02T18:22:27;5.90;99.90
6291;DHT22;3178;48.730;8.990;2023-02-02T18:24:54;5.80;99.90
6291;DHT22;3178;48.730;8.990;2023-02-02T18:27:19;5.90;99.90
6291;DHT22;3178;48.730;8.990;2023-02-02T18:29:46;5.90;99.90
6291;DHT22;3178;48.730;8.990;2023-02-02T18:32:12;5.90;99.90
6291;DHT22;3178;48.730;8.990;2023-02-02T18:34:38;5.90;99.90
6291;DHT22;3178;48.730;8.990;2023-02-02T18:37:04;5.90;99.90
6291;DHT22;3178;48.730;8.990;2023-02-02T18:39:30;5.90;99.90
6291;DHT22;3178;48.730;8.990;2023-02-02T18:41:56;5.90;99.90
6291;DHT22;3178;48.730;8.990;2023-02-02T18:44:21;5.90;99.90
6291;DHT22;3178;48.730;8.990;2023-02-02T18:46:52;5.90;99.90
6291;DHT22;3178;48.730;8.990;2023-02-02T18:49:18;5.90;99.90
6291;DHT22;3178;48.730;8.990;2023-02-02T18:51:44;5.90;99.90
6291;DHT22;3178;48.730;8.990;2023-02-02T18:54:11;5.90;99.90
6291;DHT22;3178;48.730;8.990;2023-02-02T18:56:37;5.90;99.90
6291;DHT22;3178;48.730;8.990;2023-02-02T18:59:03;5.80;99.90
6291;DHT22;3178;48.730;8.990;2023-02-02T19:01:30;5.80;99.90
6291;DHT22;3178;48.730;8.990;2023-02-02T19:03:56;5.80;99.90
6291;DHT22;3178;48.730;8.990;2023-02-02T19:06:22;5.90;99.90
6291;DHT22;3178;48.730;8.990;2023-02-02T19:09:06;5.90;99.90
6291;DHT22;3178;48.730;8.990;2023-02-02T19:11:40;5.80;99.90